createdAt,value
2019-01-22T00:04:09.389Z,-4.60
2019-01-22T00:09:13.243Z,-4.60
2019-01-22T00:14:16.917Z,-4.70
2019-01-22T00:19:20.932Z,-4.70
2019-01-22T00:24:24.614Z,-4.80
2019-01-22T00:29:28.748Z,-4.80
2019-01-22T00:34:32.482Z,-4.90
2019-01-22T00:39:36.539Z,-5.00
2019-01-22T00:44:40.283Z,-4.90
2019-01-22T00:49:44.308Z,-4.80
2019-01-22T00:54:47.986Z,-4.80
2019-01-22T00:59:54.485Z,-4.90
2019-01-22T01:04:58.268Z,-5.20
2019-01-22T01:10:01.965Z,-5.20
2019-01-22T01:15:07.951Z,-5.30
2019-01-22T01:20:14.026Z,-5.40
2019-01-22T01:25:19.820Z,-5.20
2019-01-22T01:30:25.424Z,-5.10
2019-01-22T01:35:29.536Z,-5.00
2019-01-22T01:40:33.227Z,-5.00
2019-01-22T01:45:36.999Z,-5.10
2019-01-22T01:50:41.011Z,-5.30
2019-01-22T01:55:45.520Z,-5.40
2019-01-22T02:00:49.248Z,-5.20
2019-01-22T02:05:53.269Z,-5.40
2019-01-22T02:10:57.222Z,-5.60
2019-01-22T02:16:11.894Z,-5.70
2019-01-22T02:22:01.940Z,-5.70
2019-01-22T02:27:39.541Z,-5.40
2019-01-22T02:33:07.217Z,-5.40
2019-01-22T02:38:58.214Z,-5.60
2019-01-22T02:44:35.344Z,-5.60
2019-01-22T02:49:59.624Z,-5.40
2019-01-22T02:55:09.025Z,-5.50
2019-01-22T03:00:57.481Z,-5.70
2019-01-22T03:06:26.358Z,-5.90
2019-01-22T03:12:02.214Z,-6.10
2019-01-22T03:17:45.423Z,-5.80
2019-01-22T03:23:31.126Z,-5.60
2019-01-22T03:29:05.263Z,-5.70
2019-01-22T03:34:13.898Z,-5.70
2019-01-22T03:39:41.975Z,-5.70
2019-01-22T03:45:06.638Z,-5.80
2019-01-22T03:50:43.422Z,-5.90
2019-01-22T03:56:00.215Z,-6.00
2019-01-22T04:01:16.358Z,-6.10
2019-01-22T04:06:35.116Z,-6.10
2019-01-22T04:11:43.762Z,-6.20
2019-01-22T04:16:47.454Z,-6.20
2019-01-22T04:21:51.355Z,-6.30
2019-01-22T04:27:17.896Z,-6.20
2019-01-22T04:32:27.550Z,-6.20
2019-01-22T04:37:58.414Z,-6.40
2019-01-22T04:43:27.431Z,-6.30
2019-01-22T04:48:56.839Z,-6.30
2019-01-22T04:54:37.980Z,-6.20
2019-01-22T04:59:58.263Z,-6.40
2019-01-22T05:05:33.843Z,-6.40
2019-01-22T05:11:06.776Z,-6.30
2019-01-22T05:16:29.477Z,-6.30
2019-01-22T05:22:04.063Z,-6.20
2019-01-22T05:27:26.615Z,-6.20
2019-01-22T05:32:40.998Z,-6.20
2019-01-22T05:38:10.967Z,-6.20
2019-01-22T05:43:35.893Z,-6.10
2019-01-22T05:49:02.988Z,-6.20
2019-01-22T05:54:25.089Z,-6.20
2019-01-22T05:59:58.198Z,-6.20
2019-01-22T06:05:49.812Z,-6.30
2019-01-22T06:11:39.341Z,-6.30
2019-01-22T06:16:54.924Z,-6.60
2019-01-22T06:22:31.709Z,-6.40
2019-01-22T06:27:48.752Z,-6.40
2019-01-22T06:33:16.412Z,-6.40
2019-01-22T06:38:58.492Z,-6.40
2019-01-22T06:44:47.662Z,-6.40
2019-01-22T06:50:12.899Z,-6.30
2019-01-22T06:55:51.830Z,-6.40
2019-01-22T07:01:34.262Z,-6.50
2019-01-22T07:07:07.062Z,-6.40
2019-01-22T07:12:22.974Z,-6.10
2019-01-22T07:17:44.933Z,-6.00
2019-01-22T07:23:15.905Z,-6.00
2019-01-22T07:28:54.402Z,-5.80
2019-01-22T07:34:17.949Z,-5.60
2019-01-22T07:39:32.413Z,-5.10
2019-01-22T07:45:23.721Z,-4.00
2019-01-22T07:51:03.756Z,-2.70
2019-01-22T07:56:32.952Z,-1.70
2019-01-22T08:02:03.962Z,-0.90
2019-01-22T08:07:53.162Z,-0.70
2019-01-22T08:13:24.660Z,0.50
2019-01-22T08:18:51.727Z,1.50
2019-01-22T08:24:10.227Z,2.60
2019-01-22T08:29:37.854Z,3.30
2019-01-22T08:35:16.833Z,4.50
2019-01-22T08:40:53.709Z,4.30
2019-01-22T08:46:38.627Z,4.30
2019-01-22T08:52:00.076Z,6.40
2019-01-22T08:57:31.965Z,7.70
2019-01-22T09:02:57.487Z,8.90
2019-01-22T09:08:51.696Z,8.80
2019-01-22T09:14:36.478Z,8.20
2019-01-22T09:20:27.379Z,7.70
2019-01-22T09:25:42.907Z,7.10
2019-01-22T09:31:07.004Z,6.00
2019-01-22T09:36:53.516Z,6.60
2019-01-22T09:41:57.271Z,6.90
2019-01-22T09:47:01.349Z,8.20
2019-01-22T09:52:05.120Z,9.40
2019-01-22T09:57:09.133Z,10.60
2019-01-22T10:02:13.321Z,8.70
2019-01-22T10:07:17.012Z,9.00
2019-01-22T10:12:21.148Z,9.00
2019-01-22T10:17:26.782Z,9.70
2019-01-22T10:22:30.488Z,10.90
2019-01-22T10:27:34.209Z,10.80
2019-01-22T10:32:37.931Z,8.60
2019-01-22T10:37:42.013Z,7.70
2019-01-22T10:42:45.720Z,9.70
2019-01-22T10:47:49.405Z,10.00
2019-01-22T10:52:53.157Z,9.20
2019-01-22T10:57:57.083Z,9.40
2019-01-22T11:03:00.804Z,10.10
2019-01-22T11:08:04.745Z,10.60
2019-01-22T11:13:08.497Z,10.00
2019-01-22T11:18:12.543Z,10.20
2019-01-22T11:23:16.252Z,9.50
2019-01-22T11:28:20.334Z,10.20
2019-01-22T11:33:24.363Z,9.60
2019-01-22T11:38:28.103Z,9.10
2019-01-22T11:43:32.215Z,10.40
2019-01-22T11:48:36.317Z,13.00
2019-01-22T11:53:40.063Z,12.40
2019-01-22T11:58:43.736Z,12.10
2019-01-22T12:03:47.457Z,13.50
2019-01-22T12:08:51.151Z,14.30
2019-01-22T12:13:54.830Z,13.00
2019-01-22T12:18:58.924Z,11.30
2019-01-22T12:24:02.628Z,10.80
2019-01-22T12:29:06.876Z,10.50
2019-01-22T12:34:10.732Z,11.50
2019-01-22T12:39:14.632Z,9.60
2019-01-22T12:44:18.392Z,8.90
2019-01-22T12:49:22.255Z,8.70
2019-01-22T12:54:26.052Z,10.00
2019-01-22T12:59:31.333Z,8.90
2019-01-22T13:04:35.219Z,9.20
2019-01-22T13:09:39.449Z,10.20
2019-01-22T13:14:44.012Z,10.70
2019-01-22T13:19:47.803Z,9.20
2019-01-22T13:24:51.571Z,9.40
2019-01-22T13:30:01.153Z,7.40
2019-01-22T13:35:00.631Z,6.80
2019-01-22T13:40:07.375Z,7.40
2019-01-22T13:45:14.625Z,7.00
2019-01-22T13:50:19.500Z,6.10
2019-01-22T13:55:29.079Z,6.10
2019-01-22T14:00:32.785Z,4.90
2019-01-22T14:05:36.523Z,3.50
2019-01-22T14:10:40.531Z,2.40
2019-01-22T14:15:44.264Z,1.80
2019-01-22T14:20:48.027Z,1.70
2019-01-22T14:25:52.324Z,1.50
2019-01-22T14:30:56.032Z,1.60
2019-01-22T14:35:59.758Z,1.30
2019-01-22T14:41:04.138Z,1.20
2019-01-22T14:46:07.961Z,1.00
2019-01-22T14:51:11.921Z,0.90
2019-01-22T14:56:15.855Z,0.80
2019-01-22T15:01:19.601Z,0.60
2019-01-22T15:06:23.393Z,0.30
2019-01-22T15:11:27.392Z,0.10
2019-01-22T15:16:31.391Z,-0.10
2019-01-22T15:21:35.090Z,-0.20
2019-01-22T15:26:40.986Z,-0.30
2019-01-22T15:31:45.644Z,-0.50
2019-01-22T15:36:49.763Z,-0.60
2019-01-22T15:41:53.490Z,-0.80
2019-01-22T15:46:57.218Z,-1.00
2019-01-22T15:52:01.309Z,-1.00
2019-01-22T15:57:05.379Z,-1.20
2019-01-22T16:02:09.129Z,-1.40
2019-01-22T16:07:12.843Z,-1.40
2019-01-22T16:12:16.539Z,-1.60
2019-01-22T16:17:20.288Z,-1.60
2019-01-22T16:22:24.277Z,-1.70
2019-01-22T16:27:27.943Z,-1.80
2019-01-22T16:32:31.615Z,-1.90
2019-01-22T16:37:35.649Z,-1.90
2019-01-22T16:42:39.356Z,-1.90
2019-01-22T16:47:43.073Z,-2.00
2019-01-22T16:52:46.867Z,-2.10
2019-01-22T16:57:50.576Z,-2.10
2019-01-22T17:02:54.549Z,-2.20
2019-01-22T17:07:58.427Z,-2.20
2019-01-22T17:13:02.127Z,-2.30
2019-01-22T17:18:10.942Z,-2.30
2019-01-22T17:23:23.350Z,-2.30
2019-01-22T17:28:28.777Z,-2.30
2019-01-22T17:33:42.427Z,-2.30
2019-01-22T17:38:46.208Z,-2.30
2019-01-22T17:43:49.939Z,-2.40
2019-01-22T17:48:55.778Z,-2.40
2019-01-22T17:53:59.572Z,-2.40
2019-01-22T17:59:03.261Z,-2.40
2019-01-22T18:04:07.095Z,-2.50
2019-01-22T18:09:11.400Z,-2.40
2019-01-22T18:14:15.153Z,-2.50
2019-01-22T18:19:23.811Z,-2.40
2019-01-22T18:24:24.246Z,-2.50
2019-01-22T18:29:27.977Z,-2.50
2019-01-22T18:34:32.505Z,-2.60
2019-01-22T18:39:36.205Z,-2.60
2019-01-22T18:44:40.204Z,-2.80
2019-01-22T18:49:43.909Z,-2.70
2019-01-22T18:54:47.621Z,-2.60
2019-01-22T18:59:51.323Z,-2.70
2019-01-22T19:04:55.108Z,-2.70
2019-01-22T19:09:58.956Z,-2.70
2019-01-22T19:15:03.463Z,-2.80
2019-01-22T19:20:07.657Z,-2.80
2019-01-22T19:25:19.985Z,-2.70
2019-01-22T19:30:25.770Z,-2.80
2019-01-22T19:35:29.556Z,-2.80
2019-01-22T19:40:33.643Z,-2.80
2019-01-22T19:45:37.665Z,-2.80
2019-01-22T19:50:41.355Z,-2.90
2019-01-22T19:55:45.398Z,-2.80
2019-01-22T20:00:49.458Z,-2.70
2019-01-22T20:05:53.322Z,-2.70
2019-01-22T20:10:58.315Z,-2.70
2019-01-22T20:16:02.336Z,-2.80
2019-01-22T20:21:06.572Z,-2.80
2019-01-22T20:26:10.287Z,-2.70
2019-01-22T20:31:14.238Z,-2.80
2019-01-22T20:36:18.251Z,-2.80
2019-01-22T20:41:22.007Z,-2.80
2019-01-22T20:46:25.950Z,-2.80
2019-01-22T20:51:29.656Z,-2.70
2019-01-22T20:56:33.381Z,-2.70
2019-01-22T21:01:37.580Z,-2.70
2019-01-22T21:06:41.325Z,-2.70
2019-01-22T21:11:45.046Z,-2.70
2019-01-22T21:16:48.763Z,-2.60
2019-01-22T21:21:52.472Z,-2.60
2019-01-22T21:26:56.532Z,-2.60
2019-01-22T21:32:00.237Z,-2.60
2019-01-22T21:37:04.094Z,-2.70
2019-01-22T21:42:08.274Z,-2.70
2019-01-22T21:47:12.285Z,-2.70
2019-01-22T21:52:15.948Z,-2.70
2019-01-22T21:57:19.690Z,-2.80
2019-01-22T22:02:23.402Z,-2.80
2019-01-22T22:07:27.195Z,-2.70
2019-01-22T22:12:31.128Z,-2.80
2019-01-22T22:17:34.814Z,-2.80
2019-01-22T22:22:38.509Z,-2.80
2019-01-22T22:27:42.314Z,-2.80
2019-01-22T22:32:46.235Z,-2.70
2019-01-22T22:37:49.923Z,-2.80
2019-01-22T22:42:53.731Z,-2.80
2019-01-22T22:47:57.479Z,-2.70
2019-01-22T22:53:01.188Z,-2.80
2019-01-22T22:58:05.239Z,-2.80
2019-01-22T23:03:09.464Z,-2.80
2019-01-22T23:08:13.406Z,-2.90
2019-01-22T23:13:17.509Z,-2.90
2019-01-22T23:18:21.810Z,-2.90
2019-01-22T23:23:25.684Z,-2.80
2019-01-22T23:28:29.353Z,-2.80
2019-01-22T23:33:33.046Z,-2.90
2019-01-22T23:38:37.039Z,-2.80
2019-01-22T23:43:40.740Z,-2.70
2019-01-22T23:48:45.517Z,-2.90
2019-01-22T23:53:49.207Z,-2.90
2019-01-22T23:58:52.925Z,-2.80
